createdAt,value
2019-03-06T00:02:21.128Z,51.47
2019-03-06T00:04:50.011Z,51.44
2019-03-06T00:07:18.849Z,51.48
2019-03-06T00:09:47.982Z,51.73
2019-03-06T00:12:16.937Z,51.63
2019-03-06T00:14:45.964Z,51.50
2019-03-06T00:17:14.947Z,51.57
2019-03-06T00:19:44.072Z,51.51
2019-03-06T00:22:32.200Z,51.33
2019-03-06T00:25:01.059Z,51.45
2019-03-06T00:27:30.028Z,51.83
2019-03-06T00:29:59.161Z,51.41
2019-03-06T00:32:27.988Z,51.46
2019-03-06T00:34:58.626Z,51.47
2019-03-06T00:37:26.652Z,51.29
2019-03-06T00:40:05.131Z,51.49
2019-03-06T00:42:53.382Z,51.51
2019-03-06T00:45:22.383Z,51.40
2019-03-06T00:47:51.392Z,51.65
2019-03-06T00:50:20.394Z,51.79
2019-03-06T00:52:49.387Z,51.62
2019-03-06T00:55:18.542Z,51.68
2019-03-06T00:57:47.528Z,51.76
2019-03-06T01:00:17.576Z,51.88
2019-03-06T01:02:46.799Z,51.67
2019-03-06T01:05:15.794Z,51.50
2019-03-06T01:07:44.819Z,51.51
2019-03-06T01:10:13.852Z,51.54
2019-03-06T01:12:42.824Z,51.47
2019-03-06T01:15:11.881Z,51.58
2019-03-06T01:17:40.822Z,52.08
2019-03-06T01:20:09.887Z,51.61
2019-03-06T01:22:38.895Z,51.69
2019-03-06T01:25:07.976Z,51.61
2019-03-06T01:27:36.852Z,51.58
2019-03-06T01:30:06.633Z,51.49
2019-03-06T01:32:36.015Z,51.57
2019-03-06T01:35:22.284Z,51.56
2019-03-06T01:38:12.804Z,51.39
2019-03-06T01:40:53.510Z,51.43
2019-03-06T01:43:28.034Z,51.68
2019-03-06T01:45:57.062Z,51.63
2019-03-06T01:48:45.088Z,51.45
2019-03-06T01:51:14.109Z,51.41
2019-03-06T01:53:43.135Z,51.47
2019-03-06T01:56:12.033Z,51.62
2019-03-06T01:58:41.127Z,51.40
2019-03-06T02:01:10.157Z,51.72
2019-03-06T02:03:39.185Z,51.54
2019-03-06T04:15:09.614Z,51.63
2019-03-06T04:17:38.841Z,51.69
2019-03-06T04:20:09.929Z,51.54
2019-03-06T04:22:58.036Z,51.51
2019-03-06T04:25:26.886Z,51.30
2019-03-06T04:27:55.679Z,51.37
2019-03-06T04:30:24.794Z,50.99
2019-03-06T04:32:53.709Z,51.34
2019-03-06T04:35:22.570Z,51.33
2019-03-06T04:38:10.482Z,51.43
2019-03-06T04:40:39.506Z,51.56
2019-03-06T04:43:08.632Z,51.31
2019-03-06T04:45:37.488Z,51.30
2019-03-06T04:48:06.412Z,51.29
2019-03-06T04:50:35.487Z,51.33
2019-03-06T04:53:04.501Z,51.44
2019-03-06T04:55:33.341Z,51.37
2019-03-06T04:58:02.262Z,51.34
2019-03-06T05:00:31.246Z,51.03
2019-03-06T05:03:00.153Z,50.96
2019-03-06T05:05:29.073Z,50.80
2019-03-06T05:07:57.870Z,50.84
2019-03-06T05:10:26.763Z,50.77
2019-03-06T05:12:55.966Z,50.94
2019-03-06T05:15:24.917Z,50.90
2019-03-06T05:18:12.925Z,51.07
2019-03-06T05:20:41.796Z,51.02
2019-03-06T05:23:10.685Z,51.18
2019-03-06T05:25:39.681Z,51.21
2019-03-06T05:28:09.722Z,51.27
2019-03-06T05:30:38.759Z,51.33
2019-03-06T05:33:08.401Z,51.29
2019-03-06T05:36:04.351Z,51.32
2019-03-06T05:38:40.807Z,51.28
2019-03-06T05:41:09.814Z,51.25
2019-03-06T05:43:38.942Z,51.32
2019-03-06T05:46:07.819Z,51.31
2019-03-06T05:48:36.743Z,51.27
2019-03-06T05:51:05.745Z,51.35
2019-03-06T05:53:34.869Z,51.30
2019-03-06T05:56:03.904Z,51.34
2019-03-06T05:58:35.854Z,51.38
2019-03-06T06:01:04.863Z,51.36
2019-03-06T06:03:33.893Z,51.42
2019-03-06T06:06:03.485Z,51.55
2019-03-06T06:08:32.526Z,51.56
2019-03-06T06:11:01.465Z,51.65
2019-03-06T06:13:31.080Z,51.47
2019-03-06T06:16:00.535Z,51.52
2019-03-06T06:18:29.753Z,51.62
2019-03-06T06:21:17.648Z,51.82
2019-03-06T06:23:53.436Z,51.86
2019-03-06T06:26:22.546Z,51.92
2019-03-06T06:28:51.604Z,51.90
2019-03-06T06:31:20.619Z,51.80
2019-03-06T06:33:49.648Z,52.04
2019-03-06T06:36:18.584Z,52.18
2019-03-06T06:38:47.663Z,52.21
2019-03-06T06:41:16.781Z,52.24
2019-03-06T06:43:45.699Z,52.18
2019-03-06T06:46:14.607Z,52.74
2019-03-06T06:48:43.788Z,53.61
2019-03-06T06:51:54.163Z,54.04
2019-03-06T06:54:37.111Z,54.67
2019-03-06T06:57:45.940Z,54.38
2019-03-06T07:00:26.487Z,53.72
2019-03-06T07:03:38.554Z,53.75
2019-03-06T07:06:18.758Z,54.04
2019-03-06T07:09:14.764Z,54.40
2019-03-06T07:12:08.264Z,54.90
2019-03-06T07:14:54.575Z,54.61
2019-03-06T07:17:29.695Z,55.01
2019-03-06T07:20:32.205Z,54.88
2019-03-06T07:23:15.494Z,54.88
2019-03-06T07:26:21.973Z,54.79
2019-03-06T07:29:09.929Z,54.75
2019-03-06T07:31:51.737Z,54.86
2019-03-06T07:34:42.378Z,54.82
2019-03-06T07:37:15.579Z,54.36
2019-03-06T07:40:00.685Z,54.75
2019-03-06T07:42:52.002Z,54.58
2019-03-06T07:45:59.992Z,54.71
2019-03-06T07:48:51.191Z,54.87
2019-03-06T07:51:41.327Z,54.86
2019-03-06T07:54:27.790Z,54.65
2019-03-06T07:57:15.698Z,54.83
2019-03-06T07:59:44.852Z,54.97
2019-03-06T08:02:17.791Z,55.02
2019-03-06T08:04:53.729Z,55.01
2019-03-06T08:07:22.822Z,54.96
2019-03-06T08:09:52.283Z,55.02
2019-03-06T08:12:38.305Z,55.07
2019-03-06T08:15:35.407Z,54.83
2019-03-06T08:18:19.088Z,54.84
2019-03-06T08:21:05.329Z,54.78
2019-03-06T08:23:51.891Z,54.55
2019-03-06T08:26:21.037Z,54.74
2019-03-06T08:28:49.848Z,54.55
2019-03-06T08:31:28.911Z,54.56
2019-03-06T08:33:57.930Z,54.55
2019-03-06T08:36:27.173Z,54.69
2019-03-06T08:38:56.233Z,54.68
2019-03-06T08:41:25.108Z,54.74
2019-03-06T08:43:53.983Z,54.76
2019-03-06T08:46:42.107Z,54.75
2019-03-06T08:49:30.301Z,54.44
2019-03-06T08:52:20.923Z,54.38
2019-03-06T08:55:07.914Z,54.24
2019-03-06T08:57:58.511Z,54.16
2019-03-06T09:00:55.250Z,54.45
2019-03-06T09:03:46.537Z,54.38
2019-03-06T09:06:33.798Z,54.57
2019-03-06T09:09:20.322Z,54.65
2019-03-06T09:12:08.257Z,54.54
2019-03-06T09:14:56.132Z,54.42
2019-03-06T09:17:44.147Z,54.60
2019-03-06T09:20:41.106Z,54.40
2019-03-06T09:23:27.736Z,54.50
2019-03-06T09:26:15.640Z,54.64
2019-03-06T09:29:06.514Z,55.00
2019-03-06T09:32:12.400Z,54.98
2019-03-06T09:35:06.248Z,54.87
2019-03-06T09:37:52.910Z,54.84
2019-03-06T09:40:28.457Z,54.73
2019-03-06T09:43:14.860Z,54.84
2019-03-06T09:45:58.840Z,54.85
2019-03-06T09:48:42.603Z,54.89
2019-03-06T09:51:24.505Z,54.81
2019-03-06T09:54:10.814Z,54.72
2019-03-06T09:56:58.929Z,54.75
2019-03-06T09:59:35.577Z,54.86
2019-03-06T10:02:26.436Z,54.78
2019-03-06T10:05:06.584Z,54.73
2019-03-06T10:07:54.571Z,54.38
2019-03-06T10:10:46.298Z,55.17
2019-03-06T10:13:19.517Z,56.83
2019-03-06T10:16:08.253Z,57.58
2019-03-06T10:18:47.365Z,57.85
2019-03-06T10:21:16.251Z,57.37
2019-03-06T10:23:45.467Z,57.06
2019-03-06T10:26:14.394Z,56.85
2019-03-06T10:28:43.243Z,56.52
2019-03-06T10:31:12.597Z,55.89
2019-03-06T10:33:41.422Z,55.81
2019-03-06T10:36:10.832Z,55.50
2019-03-06T10:38:39.870Z,55.63
2019-03-06T10:41:08.856Z,55.58
2019-03-06T10:43:37.839Z,55.49
2019-03-06T10:46:08.448Z,55.43
2019-03-06T10:48:37.337Z,55.27
2019-03-06T10:51:06.533Z,55.19
2019-03-06T10:53:41.579Z,54.82
2019-03-06T10:56:07.383Z,54.89
2019-03-06T10:58:36.575Z,54.92
2019-03-06T11:01:05.922Z,54.74
2019-03-06T11:03:40.891Z,54.38
2019-03-06T11:06:10.328Z,54.79
2019-03-06T11:08:39.433Z,54.57
2019-03-06T11:11:08.856Z,54.20
2019-03-06T11:13:38.901Z,54.66
2019-03-06T11:16:08.425Z,54.18
2019-03-06T11:18:37.405Z,54.41
2019-03-06T11:21:06.736Z,54.24
2019-03-06T11:23:35.772Z,54.46
2019-03-06T11:26:05.199Z,54.42
2019-03-06T11:28:34.098Z,54.26
2019-03-06T11:31:03.055Z,54.49
2019-03-06T11:33:31.935Z,54.19
2019-03-06T11:36:00.808Z,54.45
2019-03-06T11:38:50.394Z,54.52
2019-03-06T11:41:19.269Z,54.38
2019-03-06T11:43:48.060Z,54.07
2019-03-06T11:46:17.067Z,54.31
2019-03-06T11:48:46.109Z,54.40
2019-03-06T11:51:15.091Z,54.14
2019-03-06T11:53:44.092Z,54.44
2019-03-06T11:56:13.112Z,54.25
2019-03-06T11:58:43.146Z,54.15
2019-03-06T12:01:16.042Z,54.26
2019-03-06T12:03:45.124Z,54.39
2019-03-06T12:06:14.097Z,54.06
2019-03-06T12:08:45.913Z,54.24
2019-03-06T12:11:13.693Z,53.78
2019-03-06T12:13:42.619Z,53.96
2019-03-06T12:16:12.001Z,53.89
2019-03-06T12:18:40.912Z,54.10
2019-03-06T12:21:10.213Z,54.05
2019-03-06T12:23:39.594Z,53.83
2019-03-06T12:26:08.501Z,54.15
2019-03-06T12:28:37.281Z,54.08
2019-03-06T12:31:07.565Z,53.95
2019-03-06T12:33:36.408Z,54.09
2019-03-06T12:36:07.028Z,54.03
2019-03-06T12:38:36.042Z,54.02
2019-03-06T12:41:05.370Z,54.04
2019-03-06T12:43:34.464Z,53.97
2019-03-06T12:46:24.315Z,53.91
2019-03-06T12:49:19.279Z,53.96
2019-03-06T12:51:54.478Z,53.83
2019-03-06T12:54:18.909Z,53.33
2019-03-06T12:56:47.916Z,53.58
2019-03-06T12:59:16.911Z,53.56
2019-03-06T13:01:46.144Z,53.55
2019-03-06T13:04:15.037Z,53.35
2019-03-06T13:06:44.172Z,53.59
2019-03-06T13:09:19.924Z,53.60
2019-03-06T13:11:48.860Z,53.69
2019-03-06T13:14:17.850Z,52.95
2019-03-06T13:16:46.890Z,52.92
2019-03-06T13:19:15.901Z,53.46
2019-03-06T13:21:44.941Z,53.31
2019-03-06T13:24:14.315Z,53.59
2019-03-06T13:26:43.247Z,53.13
2019-03-06T13:29:12.263Z,52.17
2019-03-06T13:31:41.815Z,51.37
2019-03-06T13:34:32.036Z,52.71
2019-03-06T13:37:01.067Z,52.39
2019-03-06T13:39:30.117Z,53.13
2019-03-06T13:41:59.143Z,52.71
2019-03-06T13:44:28.056Z,52.38
2019-03-06T13:46:57.105Z,52.58
2019-03-06T13:49:26.117Z,52.88
2019-03-06T13:51:55.060Z,53.21
2019-03-06T13:54:24.062Z,52.98
2019-03-06T13:56:53.008Z,52.67
2019-03-06T13:59:21.769Z,53.08
2019-03-06T14:01:50.748Z,52.72
2019-03-06T14:04:19.749Z,52.19
2019-03-06T14:06:48.738Z,52.66
2019-03-06T14:09:17.700Z,52.32
2019-03-06T14:11:46.807Z,52.48
2019-03-06T14:14:15.680Z,52.64
2019-03-06T14:16:44.827Z,52.55
2019-03-06T14:19:13.865Z,53.00
2019-03-06T14:21:42.749Z,53.25
2019-03-06T14:24:11.620Z,52.86
2019-03-06T14:26:40.909Z,52.98
2019-03-06T14:29:10.945Z,52.50
2019-03-06T14:31:39.881Z,52.22
2019-03-06T14:34:08.892Z,52.84
2019-03-06T14:36:38.035Z,52.40
2019-03-06T14:39:26.994Z,53.06
2019-03-06T14:41:56.024Z,53.13
2019-03-06T14:44:24.856Z,53.34
2019-03-06T14:46:53.766Z,52.20
2019-03-06T14:49:22.771Z,52.93
2019-03-06T14:51:51.876Z,53.19
2019-03-06T14:54:20.812Z,53.13
2019-03-06T14:56:49.890Z,53.16
2019-03-06T14:59:18.842Z,53.22
2019-03-06T15:01:47.826Z,52.96
2019-03-06T15:04:16.773Z,53.22
2019-03-06T15:06:45.861Z,53.43
2019-03-06T15:09:26.016Z,53.41
2019-03-06T15:11:54.804Z,53.14
2019-03-06T15:14:23.887Z,53.23
2019-03-06T15:16:52.822Z,53.21
2019-03-06T15:19:22.027Z,53.35
2019-03-06T15:21:51.101Z,53.38
2019-03-06T15:24:19.966Z,53.55
2019-03-06T15:26:48.874Z,53.42
2019-03-06T15:29:17.878Z,53.26
2019-03-06T15:32:06.110Z,53.62
2019-03-06T15:34:35.089Z,53.28
2019-03-06T15:37:03.987Z,53.24
2019-03-06T15:39:42.773Z,53.07
2019-03-06T15:42:07.805Z,53.66
2019-03-06T15:44:37.010Z,53.65
2019-03-06T15:47:06.250Z,53.74
2019-03-06T15:49:35.194Z,53.53
2019-03-06T15:52:04.067Z,53.47
2019-03-06T15:54:33.079Z,53.44
2019-03-06T15:57:02.294Z,53.61
2019-03-06T15:59:32.795Z,53.74
2019-03-06T16:02:01.774Z,53.73
2019-03-06T16:04:30.803Z,53.76
2019-03-06T16:06:59.701Z,53.52
2019-03-06T16:09:28.666Z,53.42
2019-03-06T16:11:58.095Z,53.56
2019-03-06T16:14:46.331Z,53.59
2019-03-06T16:17:15.215Z,53.54
2019-03-06T16:19:44.122Z,53.54
2019-03-06T16:22:13.430Z,53.42
2019-03-06T16:24:42.682Z,53.28
2019-03-06T16:27:11.504Z,53.30
2019-03-06T16:29:40.498Z,52.98
2019-03-06T16:32:09.370Z,53.11
2019-03-06T16:34:38.298Z,53.13
2019-03-06T16:37:07.495Z,52.92
2019-03-06T16:39:55.567Z,53.11
2019-03-06T16:42:24.517Z,53.14
2019-03-06T16:44:53.545Z,53.06
2019-03-06T16:47:22.786Z,53.09
2019-03-06T16:49:53.685Z,53.20
2019-03-06T16:52:22.585Z,53.16
2019-03-06T16:54:51.548Z,53.17
2019-03-06T16:57:20.710Z,53.19
2019-03-06T16:59:49.614Z,53.21
2019-03-06T17:02:18.670Z,53.21
2019-03-06T17:04:47.555Z,53.29
2019-03-06T17:07:16.448Z,53.26
2019-03-06T17:10:04.737Z,53.33
2019-03-06T17:12:33.740Z,53.30
2019-03-06T17:15:02.804Z,53.36
2019-03-06T17:17:31.759Z,53.39
2019-03-06T17:20:00.795Z,53.40
2019-03-06T17:22:29.733Z,53.40
2019-03-06T17:24:58.795Z,53.37
2019-03-06T17:27:27.756Z,53.39
2019-03-06T17:29:56.687Z,53.44
2019-03-06T17:32:25.477Z,53.53
2019-03-06T17:34:54.496Z,53.56
2019-03-06T17:37:23.607Z,53.60
2019-03-06T17:39:52.510Z,53.64
2019-03-06T17:42:21.372Z,53.67
2019-03-06T17:44:50.382Z,53.75
2019-03-06T17:47:19.348Z,53.75
2019-03-06T17:49:48.530Z,53.74
2019-03-06T17:52:17.554Z,53.82
2019-03-06T17:54:46.944Z,53.83
2019-03-06T17:57:15.795Z,53.78
2019-03-06T17:59:44.581Z,53.85
2019-03-06T18:02:13.660Z,53.87
2019-03-06T18:04:42.698Z,53.75
2019-03-06T18:07:11.926Z,53.84
2019-03-06T18:09:40.976Z,53.87
2019-03-06T18:12:09.957Z,53.93
2019-03-06T18:14:38.976Z,53.97
2019-03-06T18:17:08.032Z,54.00
2019-03-06T18:19:36.991Z,54.02
2019-03-06T18:22:06.053Z,54.07
2019-03-06T18:24:34.963Z,54.09
2019-03-06T18:27:04.029Z,54.10
2019-03-06T18:29:33.096Z,53.95
2019-03-06T18:32:02.067Z,54.00
2019-03-06T18:34:30.982Z,54.01
2019-03-06T18:37:00.089Z,54.14
2019-03-06T18:39:29.094Z,54.13
2019-03-06T18:41:58.029Z,54.13
2019-03-06T18:44:27.148Z,54.14
2019-03-06T18:46:56.196Z,54.25
2019-03-06T18:49:25.030Z,54.27
2019-03-06T18:51:53.845Z,54.29
2019-03-06T18:54:22.961Z,54.29
2019-03-06T18:56:52.188Z,54.27
2019-03-06T18:59:21.146Z,54.33
2019-03-06T19:01:50.216Z,54.33
2019-03-06T19:04:19.184Z,54.38
2019-03-06T19:06:48.457Z,54.37
2019-03-06T19:09:17.286Z,54.40
2019-03-06T19:11:46.819Z,54.43
2019-03-06T19:14:15.951Z,54.46
2019-03-06T19:16:44.837Z,54.48
2019-03-06T19:19:13.755Z,54.41
2019-03-06T19:21:42.960Z,54.42
2019-03-06T19:24:11.798Z,54.49
2019-03-06T19:26:41.403Z,54.54
2019-03-06T19:29:11.322Z,54.50
2019-03-06T19:31:40.365Z,54.56
2019-03-06T19:34:09.407Z,54.53
2019-03-06T19:36:38.443Z,54.55
2019-03-06T19:39:07.377Z,54.53
2019-03-06T19:41:36.783Z,54.59
2019-03-06T19:44:05.804Z,54.62
2019-03-06T19:46:34.838Z,54.63
2019-03-06T19:49:03.976Z,54.63
2019-03-06T19:51:32.963Z,54.59
2019-03-06T19:54:01.927Z,54.64
2019-03-06T19:56:31.455Z,54.66
2019-03-06T19:59:00.486Z,54.65
2019-03-06T20:01:29.624Z,54.66
2019-03-06T20:03:58.606Z,54.65
2019-03-06T20:06:27.513Z,54.68
2019-03-06T20:08:56.616Z,54.65
2019-03-06T20:11:25.477Z,54.69
2019-03-06T20:13:54.354Z,54.65
2019-03-06T20:16:23.752Z,54.66
2019-03-06T20:18:52.586Z,54.71
2019-03-06T20:21:21.519Z,54.69
2019-03-06T20:23:50.658Z,54.77
2019-03-06T20:26:19.612Z,54.77
2019-03-06T20:28:48.654Z,54.80
2019-03-06T20:31:17.664Z,54.82
2019-03-06T20:33:46.576Z,54.80
2019-03-06T20:36:15.462Z,54.80
2019-03-06T20:38:44.500Z,54.79
2019-03-06T20:41:13.397Z,54.85
2019-03-06T20:43:42.868Z,54.77
2019-03-06T20:46:11.722Z,54.77
2019-03-06T20:48:40.656Z,54.75
2019-03-06T20:51:28.673Z,54.75
2019-03-06T20:53:57.723Z,54.82
2019-03-06T20:56:26.590Z,54.84
2019-03-06T20:58:57.711Z,54.78
2019-03-06T21:01:26.291Z,54.79
2019-03-06T21:03:55.330Z,54.77
2019-03-06T21:06:33.029Z,54.83
2019-03-06T21:08:55.090Z,54.84
2019-03-06T21:11:23.914Z,54.82
2019-03-06T21:13:52.934Z,54.85
2019-03-06T21:16:21.926Z,54.79
2019-03-06T21:18:50.904Z,54.85
2019-03-06T21:21:19.894Z,54.85
2019-03-06T21:23:48.932Z,54.75
2019-03-06T21:26:17.912Z,54.77
2019-03-06T21:28:46.971Z,54.77
2019-03-06T21:31:16.269Z,54.79
2019-03-06T21:33:45.231Z,54.72
2019-03-06T21:36:14.000Z,54.68
2019-03-06T21:38:42.900Z,54.83
2019-03-06T21:41:11.994Z,54.90
2019-03-06T21:43:41.065Z,54.97
2019-03-06T21:46:10.013Z,54.94
2019-03-06T21:48:38.935Z,54.89
2019-03-06T21:51:07.814Z,54.91
2019-03-06T21:53:38.979Z,54.99
2019-03-06T21:56:07.402Z,55.05
2019-03-06T21:58:36.308Z,55.05
2019-03-06T22:01:07.054Z,55.14
2019-03-06T22:03:36.157Z,55.17
2019-03-06T22:06:05.117Z,55.21
2019-03-06T22:08:34.053Z,55.25
2019-03-06T22:11:02.924Z,55.23
2019-03-06T22:13:31.956Z,55.25
2019-03-06T22:16:00.950Z,55.30
2019-03-06T22:18:29.983Z,55.33
2019-03-06T22:20:58.981Z,55.33
2019-03-06T22:23:27.902Z,55.38
2019-03-06T22:25:56.908Z,55.40
2019-03-06T22:28:25.915Z,55.42
2019-03-06T22:30:54.920Z,55.46
2019-03-06T22:33:25.268Z,55.47
2019-03-06T22:35:54.437Z,55.49
2019-03-06T22:38:23.400Z,55.51
2019-03-06T22:40:52.327Z,55.53
2019-03-06T22:43:21.376Z,55.55
2019-03-06T22:45:50.204Z,55.58
2019-03-06T22:48:19.209Z,55.61
2019-03-06T22:50:48.004Z,55.63
2019-03-06T22:53:16.998Z,55.65
2019-03-06T22:55:45.785Z,55.68
2019-03-06T22:58:14.691Z,55.68
2019-03-06T23:01:19.741Z,55.69
2019-03-06T23:03:48.609Z,55.70
2019-03-06T23:06:17.511Z,55.69
2019-03-06T23:08:46.455Z,55.71
2019-03-06T23:11:15.446Z,55.72
2019-03-06T23:13:44.424Z,55.72
2019-03-06T23:16:13.509Z,55.74
2019-03-06T23:18:42.593Z,55.73
2019-03-06T23:21:11.509Z,55.75
2019-03-06T23:23:40.473Z,55.73
2019-03-06T23:26:09.497Z,55.76
2019-03-06T23:28:38.568Z,55.76
2019-03-06T23:31:07.629Z,55.78
2019-03-06T23:33:36.602Z,55.77
2019-03-06T23:36:05.569Z,55.76
2019-03-06T23:38:34.651Z,55.77
2019-03-06T23:41:03.659Z,55.84
2019-03-06T23:43:32.582Z,55.86
2019-03-06T23:46:20.634Z,55.85
2019-03-06T23:48:50.028Z,55.87
2019-03-06T23:51:24.317Z,55.92
2019-03-06T23:53:54.720Z,55.95
2019-03-06T23:56:22.720Z,56.01
2019-03-06T23:58:51.704Z,56.02
